Ferry Katsuragi — JI3611 — position and weather

sailwx.info

Track history (hours):
 
Tides and Currents Weather Stations Pressure Air Temp Water Temp Dewpoint Dewpoint Depression Visibility Wind Speed Wind Dir Waves Ship Positions

Ferry Katsuragi

Last reported at 2016-Feb-06 18:33 UTC. Time now 2016-Feb-06 18:45 UTC.
Position N 34°09' E 134°55'.

Length 108 m; draft 4 m.

Type: Passenger vessel. MMSI: 431301245.

Date/timePositionNaut miles runAvg speedWind from/ knotsBaromVisibWave heightAir tempDewpointWater temp
2016-Feb-06 18:33N 34°09' E 134°55'1211.6
2016-Feb-06 17:34N 34°13' E 135°09'0 0.0
2016-Feb-06 16:33N 34°13' E 135°09'0 0.0
2016-Feb-06 15:34N 34°13' E 135°09'7 6.5
2016-Feb-06 14:33N 34°11' E 135°01'12 3.9
2016-Feb-06 11:30N 34°06' E 134°48'1415.3
2016-Feb-06 10:33N 34°12' E 135°04'4 4.0
2016-Feb-06 09:33N 34°13' E 135°09'11 2.7
2016-Feb-06 05:31N 34°09' E 134°56'1111.4
2016-Feb-06 04:33N 34°13' E 135°09'7 7.2
2016-Feb-06 03:33N 34°10' E 135°01'2 0.7
2016-Feb-06 00:10N 34°10' E 134°58'914.4
2016-Feb-05 23:33N 34°13' E 135°08'3 2.9
2016-Feb-05 22:33N 34°13' E 135°04'17 5.0
2016-Feb-05 19:13N 34°06' E 134°46'1013.3
2016-Feb-05 18:27N 34°10' E 134°57'1011.2
2016-Feb-05 17:33N 34°13' E 135°09'0 0.0
2016-Feb-05 16:33N 34°13' E 135°09'0 0.0
2016-Feb-05 15:33N 34°13' E 135°09'7 7.2
2016-Feb-05 14:33N 34°10' E 135°00'3 0.8
2016-Feb-05 10:33N 34°12' E 135°04'4 3.9
2016-Feb-05 09:34N 34°13' E 135°09'12 2.9
2016-Feb-05 05:30N 34°09' E 134°56'1212.4
2016-Feb-05 04:34N 34°13' E 135°09'7 6.5
2016-Feb-05 03:33N 34°11' E 135°01'2 0.7
2016-Feb-05 00:07N 34°10' E 134°58'914.9
2016-Feb-04 23:33N 34°13' E 135°08'2 1.8
2016-Feb-04 22:33N 34°13' E 135°06'18 5.1
2016-Feb-04 19:05N 34°06' E 134°46'914.5
2016-Feb-04 18:29N 34°10' E 134°56'1111.7
2016-Feb-04 17:34N 34°13' E 135°09'0 0.0
2016-Feb-04 16:33N 34°13' E 135°09'0 0.0
2016-Feb-04 15:34N 34°13' E 135°09'7 6.7
2016-Feb-04 14:34N 34°11' E 135°01'11 3.6
2016-Feb-04 11:28N 34°07' E 134°49'1415.1
2016-Feb-04 10:33N 34°12' E 135°04'4 3.8
2016-Feb-04 09:33N 34°13' E 135°09'8 1.9
2016-Feb-04 05:19N 34°11' E 134°59'810.8
2016-Feb-04 04:33N 34°13' E 135°09'6 6.5
2016-Feb-04 03:33N 34°11' E 135°01'4 1.3
2016-Feb-04 00:15N 34°09' E 134°57'1014.6
2016-Feb-03 23:34N 34°13' E 135°08'1 1.4
2016-Feb-03 22:33N 34°13' E 135°06'17 5.1
2016-Feb-03 19:08N 34°07' E 134°46'813.3
2016-Feb-03 18:32N 34°09' E 134°55'1211.8
2016-Feb-03 17:33N 34°13' E 135°09'0 0.0
2016-Feb-03 16:33N 34°13' E 135°09'0 0.0
2016-Feb-03 15:33N 34°13' E 135°09'7 7.1
2016-Feb-03 14:33N 34°11' E 135°00'11 3.7
2016-Feb-03 11:31N 34°07' E 134°48'1415.1
2016-Feb-03 10:33N 34°12' E 135°04'4 4.1
2016-Feb-03 09:34N 34°13' E 135°09'20 6.1
2016-Feb-03 06:12N 34°05' E 134°46'1013.5
2016-Feb-03 05:29N 34°09' E 134°56'1111.6
2016-Feb-03 04:33N 34°13' E 135°09'6 5.8
2016-Feb-03 03:33N 34°11' E 135°02'5 1.6
2016-Feb-03 00:16N 34°10' E 134°56'1014.6
2016-Feb-02 23:33N 34°13' E 135°08'2 1.6
2016-Feb-02 22:34N 34°13' E 135°06'18 5.1
2016-Feb-02 19:03N 34°06' E 134°46'1014.7
2016-Feb-02 18:20N 34°11' E 134°57'912.2
2016-Feb-02 17:34N 34°13' E 135°09'0 0.0
2016-Feb-02 16:34N 34°13' E 135°09'0 0.0
2016-Feb-02 15:34N 34°13' E 135°09'7 7.3
2016-Feb-02 14:34N 34°10' E 135°00'10 3.2
2016-Feb-02 11:30N 34°08' E 134°49'1313.7
2016-Feb-02 10:34N 34°12' E 135°04'3 3.4
2016-Feb-02 09:34N 34°13' E 135°08'9 2.2
2016-Feb-02 05:25N 34°10' E 134°57'1011.3
2016-Feb-02 04:33N 34°13' E 135°09'6 6.1
2016-Feb-02 03:33N 34°12' E 135°01'11 3.6
2016-Feb-02 00:32N 34°07' E 134°50'1616.9
2016-Feb-01 23:34N 34°13' E 135°08'1 1.1
2016-Feb-01 22:33N 34°13' E 135°07'10 2.6
2016-Feb-01 18:31N 34°09' E 134°55'1212.5
2016-Feb-01 17:33N 34°13' E 135°09'0 0.0
2016-Feb-01 16:33N 34°13' E 135°09'0 0.0
2016-Feb-01 15:33N 34°13' E 135°09'6 6.3
2016-Feb-01 14:33N 34°11' E 135°01'13 4.2
2016-Feb-01 11:33N 34°07' E 134°47'1515.1
2016-Feb-01 10:33N 34°12' E 135°04'4 3.9
2016-Feb-01 09:34N 34°13' E 135°08'10 2.4
2016-Feb-01 05:26N 34°11' E 134°57'1011.3
2016-Feb-01 04:33N 34°13' E 135°09'6 6.0
2016-Feb-01 03:33N 34°12' E 135°01'10 3.2
2016-Feb-01 00:33N 34°08' E 134°51'1515.0
2016-Jan-31 23:34N 34°13' E 135°08'2 1.7
2016-Jan-31 22:34N 34°13' E 135°06'18 5.4
2016-Jan-31 19:13N 34°06' E 134°46'1113.1
2016-Jan-31 18:25N 34°11' E 134°57'1011.4
2016-Jan-31 17:33N 34°13' E 135°09'0 0.0
2016-Jan-31 16:33N 34°13' E 135°09'0 0.0
2016-Jan-31 15:33N 34°13' E 135°09'7 7.2
2016-Jan-31 14:34N 34°11' E 135°00'11 3.5
2016-Jan-31 11:28N 34°07' E 134°48'1414.8
2016-Jan-31 10:33N 34°12' E 135°04'4 4.2
2016-Jan-31 09:33N 34°13' E 135°09'10 2.4
2016-Jan-31 05:25N 34°11' E 134°57'1011.6
2016-Jan-31 04:33N 34°13' E 135°09'6 6.2
2016-Jan-31 03:32N 34°12' E 135°01'5 1.4
2016-Jan-31 00:16N 34°10' E 134°56'1014.8
2016-Jan-30 23:33N 34°13' E 135°08'2 1.7
2016-Jan-30 22:33N 34°13' E 135°06'18 5.2
2016-Jan-30 19:07N 34°06' E 134°46'1014.1
2016-Jan-30 18:22N 34°10' E 134°58'1011.8
2016-Jan-30 17:33N 34°13' E 135°09'0 0.0
2016-Jan-30 16:33N 34°13' E 135°09'0 0.0
2016-Jan-30 15:34N 34°13' E 135°09'6 6.4
2016-Jan-30 14:33N 34°11' E 135°01'11 3.4
2016-Jan-30 11:26N 34°08' E 134°49'1314.7
2016-Jan-30 10:33N 34°12' E 135°04'4 4.1
2016-Jan-30 09:34N 34°13' E 135°09'11 2.7
2016-Jan-30 05:28N 34°09' E 134°56'1112.4
2016-Jan-30 04:33N 34°13' E 135°09'7 6.6
2016-Jan-30 03:33N 34°12' E 135°01'9 2.8
2016-Jan-30 00:31N 34°08' E 134°51'1515.2
2016-Jan-29 23:33N 34°13' E 135°08'1 1.4
2016-Jan-29 22:33N 34°13' E 135°06'18 5.0
2016-Jan-29 19:05N 34°05' E 134°47'814.1
2016-Jan-29 18:32N 34°07' E 134°56'1212.1
2016-Jan-29 17:33N 34°13' E 135°09'0 0.0
2016-Jan-29 16:33N 34°13' E 135°09'0 0.0
2016-Jan-29 15:33N 34°13' E 135°09'7 6.8
2016-Jan-29 14:33N 34°11' E 135°01'10 3.2
2016-Jan-29 11:26N 34°08' E 134°49'1314.4
2016-Jan-29 10:33N 34°12' E 135°04'4 4.1
2016-Jan-29 09:33N 34°13' E 135°09'12 2.9
2016-Jan-29 05:33N 34°08' E 134°56'1211.7
2016-Jan-29 04:33N 34°13' E 135°09'7 6.5
2016-Jan-29 03:34N 34°12' E 135°01'2 0.7
2016-Jan-29 00:09N 34°11' E 134°58'914.6
2016-Jan-28 23:33N 34°13' E 135°09'2 2.1
2016-Jan-28 22:33N 34°13' E 135°06'18 5.5
2016-Jan-28 19:12N 34°06' E 134°46'1113.6
2016-Jan-28 18:21N 34°10' E 134°58'911.3
2016-Jan-28 17:34N 34°13' E 135°09'0 0.0
2016-Jan-28 16:34N 34°13' E 135°09'0 0.0
2016-Jan-28 15:33N 34°13' E 135°09'8 7.5
2016-Jan-28 14:33N 34°11' E 134°60'11 3.5
2016-Jan-28 11:30N 34°07' E 134°48'1415.1
2016-Jan-28 10:33N 34°12' E 135°04'4 3.8
2016-Jan-28 09:34N 34°13' E 135°09'21 6.3
2016-Jan-28 06:15N 34°05' E 134°45'1113.7
2016-Jan-28 05:28N 34°10' E 134°57'1011.2
2016-Jan-28 04:34N 34°13' E 135°09'7 6.7
2016-Jan-28 03:33N 34°11' E 135°01'4 1.3
2016-Jan-28 00:16N 34°10' E 134°56'1114.9
2016-Jan-27 23:33N 34°13' E 135°08'1 1.4
2016-Jan-27 22:34N 34°13' E 135°06'23 7.6
2016-Jan-27 19:30N 34°04' E 134°40'  
Track history (hours):
 
Tides and Currents Weather Stations Pressure Air Temp Water Temp Dewpoint Dewpoint Depression Visibility Wind Speed Wind Dir Waves Ship Positions

Ferry Katsuragi

Last reported at 2016-Feb-06 18:33 UTC. Time now 2016-Feb-06 18:45 UTC.
Position N 34°09' E 134°55'.

Length 108 m; draft 4 m.

Type: Passenger vessel. MMSI: 431301245.

Date/timePositionNaut miles runAvg speedWind from/ knotsBaromVisibWave heightAir tempDewpointWater temp
2016-Feb-06 18:33N 34°09' E 134°55'1211.6
2016-Feb-06 17:34N 34°13' E 135°09'0 0.0
2016-Feb-06 16:33N 34°13' E 135°09'0 0.0
2016-Feb-06 15:34N 34°13' E 135°09'7 6.5
2016-Feb-06 14:33N 34°11' E 135°01'12 3.9
2016-Feb-06 11:30N 34°06' E 134°48'1415.3
2016-Feb-06 10:33N 34°12' E 135°04'4 4.0
2016-Feb-06 09:33N 34°13' E 135°09'11 2.7
2016-Feb-06 05:31N 34°09' E 134°56'1111.4
2016-Feb-06 04:33N 34°13' E 135°09'7 7.2
2016-Feb-06 03:33N 34°10' E 135°01'2 0.7
2016-Feb-06 00:10N 34°10' E 134°58'914.4
2016-Feb-05 23:33N 34°13' E 135°08'3 2.9
2016-Feb-05 22:33N 34°13' E 135°04'17 5.0
2016-Feb-05 19:13N 34°06' E 134°46'1013.3
2016-Feb-05 18:27N 34°10' E 134°57'1011.2
2016-Feb-05 17:33N 34°13' E 135°09'0 0.0
2016-Feb-05 16:33N 34°13' E 135°09'0 0.0
2016-Feb-05 15:33N 34°13' E 135°09'7 7.2
2016-Feb-05 14:33N 34°10' E 135°00'3 0.8
2016-Feb-05 10:33N 34°12' E 135°04'4 3.9
2016-Feb-05 09:34N 34°13' E 135°09'12 2.9
2016-Feb-05 05:30N 34°09' E 134°56'1212.4
2016-Feb-05 04:34N 34°13' E 135°09'7 6.5
2016-Feb-05 03:33N 34°11' E 135°01'2 0.7
2016-Feb-05 00:07N 34°10' E 134°58'914.9
2016-Feb-04 23:33N 34°13' E 135°08'2 1.8
2016-Feb-04 22:33N 34°13' E 135°06'18 5.1
2016-Feb-04 19:05N 34°06' E 134°46'914.5
2016-Feb-04 18:29N 34°10' E 134°56'1111.7
2016-Feb-04 17:34N 34°13' E 135°09'0 0.0
2016-Feb-04 16:33N 34°13' E 135°09'0 0.0
2016-Feb-04 15:34N 34°13' E 135°09'7 6.7
2016-Feb-04 14:34N 34°11' E 135°01'11 3.6
2016-Feb-04 11:28N 34°07' E 134°49'1415.1
2016-Feb-04 10:33N 34°12' E 135°04'4 3.8
2016-Feb-04 09:33N 34°13' E 135°09'8 1.9
2016-Feb-04 05:19N 34°11' E 134°59'810.8
2016-Feb-04 04:33N 34°13' E 135°09'6 6.5
2016-Feb-04 03:33N 34°11' E 135°01'4 1.3
2016-Feb-04 00:15N 34°09' E 134°57'1014.6
2016-Feb-03 23:34N 34°13' E 135°08'1 1.4
2016-Feb-03 22:33N 34°13' E 135°06'17 5.1
2016-Feb-03 19:08N 34°07' E 134°46'813.3
2016-Feb-03 18:32N 34°09' E 134°55'1211.8
2016-Feb-03 17:33N 34°13' E 135°09'0 0.0
2016-Feb-03 16:33N 34°13' E 135°09'0 0.0
2016-Feb-03 15:33N 34°13' E 135°09'7 7.1
2016-Feb-03 14:33N 34°11' E 135°00'11 3.7
2016-Feb-03 11:31N 34°07' E 134°48'1415.1
2016-Feb-03 10:33N 34°12' E 135°04'4 4.1
2016-Feb-03 09:34N 34°13' E 135°09'20 6.1
2016-Feb-03 06:12N 34°05' E 134°46'1013.5
2016-Feb-03 05:29N 34°09' E 134°56'1111.6
2016-Feb-03 04:33N 34°13' E 135°09'6 5.8
2016-Feb-03 03:33N 34°11' E 135°02'5 1.6
2016-Feb-03 00:16N 34°10' E 134°56'1014.6
2016-Feb-02 23:33N 34°13' E 135°08'2 1.6
2016-Feb-02 22:34N 34°13' E 135°06'18 5.1
2016-Feb-02 19:03N 34°06' E 134°46'1014.7
2016-Feb-02 18:20N 34°11' E 134°57'912.2
2016-Feb-02 17:34N 34°13' E 135°09'0 0.0
2016-Feb-02 16:34N 34°13' E 135°09'0 0.0
2016-Feb-02 15:34N 34°13' E 135°09'7 7.3
2016-Feb-02 14:34N 34°10' E 135°00'10 3.2
2016-Feb-02 11:30N 34°08' E 134°49'1313.7
2016-Feb-02 10:34N 34°12' E 135°04'3 3.4
2016-Feb-02 09:34N 34°13' E 135°08'9 2.2
2016-Feb-02 05:25N 34°10' E 134°57'1011.3
2016-Feb-02 04:33N 34°13' E 135°09'6 6.1
2016-Feb-02 03:33N 34°12' E 135°01'11 3.6
2016-Feb-02 00:32N 34°07' E 134°50'1616.9
2016-Feb-01 23:34N 34°13' E 135°08'1 1.1
2016-Feb-01 22:33N 34°13' E 135°07'10 2.6
2016-Feb-01 18:31N 34°09' E 134°55'1212.5
2016-Feb-01 17:33N 34°13' E 135°09'0 0.0
2016-Feb-01 16:33N 34°13' E 135°09'0 0.0
2016-Feb-01 15:33N 34°13' E 135°09'6 6.3
2016-Feb-01 14:33N 34°11' E 135°01'13 4.2
2016-Feb-01 11:33N 34°07' E 134°47'1515.1
2016-Feb-01 10:33N 34°12' E 135°04'4 3.9
2016-Feb-01 09:34N 34°13' E 135°08'10 2.4
2016-Feb-01 05:26N 34°11' E 134°57'1011.3
2016-Feb-01 04:33N 34°13' E 135°09'6 6.0
2016-Feb-01 03:33N 34°12' E 135°01'10 3.2
2016-Feb-01 00:33N 34°08' E 134°51'1515.0
2016-Jan-31 23:34N 34°13' E 135°08'2 1.7
2016-Jan-31 22:34N 34°13' E 135°06'18 5.4
2016-Jan-31 19:13N 34°06' E 134°46'1113.1
2016-Jan-31 18:25N 34°11' E 134°57'1011.4
2016-Jan-31 17:33N 34°13' E 135°09'0 0.0
2016-Jan-31 16:33N 34°13' E 135°09'0 0.0
2016-Jan-31 15:33N 34°13' E 135°09'7 7.2
2016-Jan-31 14:34N 34°11' E 135°00'11 3.5
2016-Jan-31 11:28N 34°07' E 134°48'1414.8
2016-Jan-31 10:33N 34°12' E 135°04'4 4.2
2016-Jan-31 09:33N 34°13' E 135°09'10 2.4
2016-Jan-31 05:25N 34°11' E 134°57'1011.6
2016-Jan-31 04:33N 34°13' E 135°09'6 6.2
2016-Jan-31 03:32N 34°12' E 135°01'5 1.4
2016-Jan-31 00:16N 34°10' E 134°56'1014.8
2016-Jan-30 23:33N 34°13' E 135°08'2 1.7
2016-Jan-30 22:33N 34°13' E 135°06'18 5.2
2016-Jan-30 19:07N 34°06' E 134°46'1014.1
2016-Jan-30 18:22N 34°10' E 134°58'1011.8
2016-Jan-30 17:33N 34°13' E 135°09'0 0.0
2016-Jan-30 16:33N 34°13' E 135°09'0 0.0
2016-Jan-30 15:34N 34°13' E 135°09'6 6.4
2016-Jan-30 14:33N 34°11' E 135°01'11 3.4
2016-Jan-30 11:26N 34°08' E 134°49'1314.7
2016-Jan-30 10:33N 34°12' E 135°04'4 4.1
2016-Jan-30 09:34N 34°13' E 135°09'11 2.7
2016-Jan-30 05:28N 34°09' E 134°56'1112.4
2016-Jan-30 04:33N 34°13' E 135°09'7 6.6
2016-Jan-30 03:33N 34°12' E 135°01'9 2.8
2016-Jan-30 00:31N 34°08' E 134°51'1515.2
2016-Jan-29 23:33N 34°13' E 135°08'1 1.4
2016-Jan-29 22:33N 34°13' E 135°06'18 5.0
2016-Jan-29 19:05N 34°05' E 134°47'814.1
2016-Jan-29 18:32N 34°07' E 134°56'1212.1
2016-Jan-29 17:33N 34°13' E 135°09'0 0.0
2016-Jan-29 16:33N 34°13' E 135°09'0 0.0
2016-Jan-29 15:33N 34°13' E 135°09'7 6.8
2016-Jan-29 14:33N 34°11' E 135°01'10 3.2
2016-Jan-29 11:26N 34°08' E 134°49'1314.4
2016-Jan-29 10:33N 34°12' E 135°04'4 4.1
2016-Jan-29 09:33N 34°13' E 135°09'12 2.9
2016-Jan-29 05:33N 34°08' E 134°56'1211.7
2016-Jan-29 04:33N 34°13' E 135°09'7 6.5
2016-Jan-29 03:34N 34°12' E 135°01'2 0.7
2016-Jan-29 00:09N 34°11' E 134°58'914.6
2016-Jan-28 23:33N 34°13' E 135°09'2 2.1
2016-Jan-28 22:33N 34°13' E 135°06'18 5.5
2016-Jan-28 19:12N 34°06' E 134°46'1113.6
2016-Jan-28 18:21N 34°10' E 134°58'911.3
2016-Jan-28 17:34N 34°13' E 135°09'0 0.0
2016-Jan-28 16:34N 34°13' E 135°09'0 0.0
2016-Jan-28 15:33N 34°13' E 135°09'8 7.5
2016-Jan-28 14:33N 34°11' E 134°60'11 3.5
2016-Jan-28 11:30N 34°07' E 134°48'1415.1
2016-Jan-28 10:33N 34°12' E 135°04'4 3.8
2016-Jan-28 09:34N 34°13' E 135°09'21 6.3
2016-Jan-28 06:15N 34°05' E 134°45'1113.7
2016-Jan-28 05:28N 34°10' E 134°57'1011.2
2016-Jan-28 04:34N 34°13' E 135°09'7 6.7
2016-Jan-28 03:33N 34°11' E 135°01'4 1.3
2016-Jan-28 00:16N 34°10' E 134°56'1114.9
2016-Jan-27 23:33N 34°13' E 135°08'1 1.4
2016-Jan-27 22:34N 34°13' E 135°06'23 7.6
2016-Jan-27 19:30N 34°04' E 134°40'  

Dump ship's entire track history